Time;durP1;ratioP1;P1;durP2;ratioP2;P2;SDS_P1;SDS_P2;PMS_P1;PMS_P2;Temp;Humidity;BMP_temperature;BMP_pressure;BME280_temperature;BME280_humidity;BME280_pressure;Samples;Min_cycle;Max_cycle;Signal;HPM_P1;HPM_P2
2021/05/22 00:00:26;;;;;;;3.88;1.88;;;;;;;11.46;60.40;99623.88;3534176;40;20066;-53
2021/05/22 00:02:53;;;;;;;4.53;1.20;;;;;;;11.62;60.02;99617.09;3532848;40;20051;-54
2021/05/22 00:05:20;;;;;;;4.03;1.50;;;;;;;11.61;60.22;99622.22;3532727;40;20059;-53
2021/05/22 00:07:47;;;;;;;6.43;1.70;;;;;;;11.65;59.89;99611.97;3532817;40;20129;-54
2021/05/22 00:10:15;;;;;;;6.07;1.52;;;;;;;11.59;59.69;99611.94;3532678;40;20130;-54
2021/05/22 00:12:44;;;;;;;10.85;2.42;;;;;;;11.50;60.33;99616.19;3532632;40;20091;-53
2021/05/22 00:15:14;;;;;;;5.50;1.60;;;;;;;11.54;59.77;99599.97;3532864;40;20099;-57
2021/05/22 00:17:41;;;;;;;6.50;1.95;;;;;;;11.62;59.52;99601.72;3528904;40;20094;-50
2021/05/22 00:20:09;;;;;;;5.43;1.30;;;;;;;11.61;59.96;99599.16;3532749;40;20124;-51
2021/05/22 00:22:39;;;;;;;6.50;1.55;;;;;;;11.34;60.87;99597.31;3533238;40;20099;-54
2021/05/22 00:25:07;;;;;;;4.93;2.05;;;;;;;11.48;60.83;99582.84;3532762;40;20047;-56
2021/05/22 00:27:34;;;;;;;3.53;1.70;;;;;;;11.61;60.81;99570.94;3532815;40;20497;-52
2021/05/22 00:30:03;;;;;;;4.07;2.00;;;;;;;11.67;60.70;99576.09;3532981;40;20133;-51
2021/05/22 00:32:30;;;;;;;6.68;1.77;;;;;;;11.65;60.64;99573.53;3532969;40;20126;-54
2021/05/22 00:34:58;;;;;;;8.95;1.73;;;;;;;11.69;61.35;99564.09;3532979;40;20085;-51
2021/05/22 00:37:25;;;;;;;2.95;1.83;;;;;;;11.62;61.22;99552.13;3532669;40;20102;-50
2021/05/22 00:39:52;;;;;;;4.03;1.58;;;;;;;11.65;61.76;99558.13;3532948;40;20094;-52
2021/05/22 00:42:19;;;;;;;3.30;1.50;;;;;;;11.64;61.33;99548.72;3532573;40;20074;-51
2021/05/22 00:45:10;;;;;;;5.13;1.98;;;;;;;11.68;61.82;99545.31;3532680;40;20099;-51
2021/05/22 00:47:40;;;;;;;5.82;2.20;;;;;;;11.61;62.29;99545.31;3532786;40;20054;-55
2021/05/22 00:50:10;;;;;;;4.45;1.58;;;;;;;11.54;62.29;99539.28;3532995;40;20094;-51
2021/05/22 00:52:38;;;;;;;3.38;1.67;;;;;;;11.53;63.09;99531.59;3532887;40;20083;-57
2021/05/22 00:55:06;;;;;;;6.90;1.85;;;;;;;11.54;62.52;99543.56;3533055;40;20154;-53
2021/05/22 00:57:33;;;;;;;3.88;1.75;;;;;;;11.52;63.40;99547.84;3532703;40;20087;-51
2021/05/22 01:00:01;;;;;;;6.40;1.48;;;;;;;11.55;62.94;99558.94;3532688;40;20413;-51
2021/05/22 01:02:28;;;;;;;5.82;2.00;;;;;;;11.45;62.86;99558.03;3532591;40;20122;-56
2021/05/22 01:04:59;;;;;;;5.05;2.05;;;;;;;11.50;63.67;99549.53;3532185;40;20051;-54
2021/05/22 01:07:27;;;;;;;3.70;1.83;;;;;;;11.35;64.47;99538.38;3532301;40;20101;-52
2021/05/22 01:09:56;;;;;;;4.13;1.48;;;;;;;11.38;64.29;99551.19;3532669;40;20101;-52
2021/05/22 01:12:29;;;;;;;7.13;1.98;;;;;;;11.33;65.01;99554.59;3531970;40;20049;-51
2021/05/22 01:15:05;;;;;;;3.25;1.50;;;;;;;11.36;64.91;99557.16;3532758;40;20091;-51
2021/05/22 01:17:33;;;;;;;;;;;;;;;11.29;65.13;99558.84;3533508;40;20356;-52
2021/05/22 01:20:00;;;;;;;3.70;1.30;;;;;;;11.24;65.78;99565.66;3532612;40;20324;-51
2021/05/22 01:22:32;;;;;;;6.72;1.50;;;;;;;11.11;65.65;99574.13;3532448;40;20075;-54
2021/05/22 01:25:44;;;;;;;7.20;1.83;;;;;;;11.09;66.09;99563.88;3532318;40;20148;-53
2021/05/22 01:28:12;;;;;;;3.67;1.60;;;;;;;10.77;67.41;99556.00;3522418;40;20540;-51
2021/05/22 01:30:40;;;;;;;4.97;1.77;;;;;;;10.78;67.44;99549.19;3522747;40;20081;-54
2021/05/22 01:33:09;;;;;;;3.50;2.00;;;;;;;10.86;68.13;99548.38;3526387;40;20409;-52
2021/05/22 01:35:38;;;;;;;2.35;1.33;;;;;;;10.85;67.51;99548.34;3532615;40;20094;-54
2021/05/22 01:38:06;;;;;;;5.32;1.88;;;;;;;10.74;68.59;99550.00;3532566;40;20062;-53
2021/05/22 01:40:35;;;;;;;4.72;1.50;;;;;;;11.09;67.58;99545.06;3532815;40;20423;-55
2021/05/22 01:43:02;;;;;;;2.60;1.48;;;;;;;11.09;67.69;99539.94;3532525;40;20063;-53
2021/05/22 01:45:33;;;;;;;3.20;1.98;;;;;;;10.93;68.49;99541.59;3532378;40;20057;-51
2021/05/22 01:48:03;;;;;;;4.72;1.77;;;;;;;10.88;68.90;99528.75;3532348;40;20092;-55
2021/05/22 01:50:33;;;;;;;6.55;2.00;;;;;;;10.81;69.48;99537.22;3532181;40;20058;-51
2021/05/22 01:53:04;;;;;;;3.10;1.60;;;;;;;10.77;69.85;99539.75;3532322;40;20356;-53
2021/05/22 01:55:33;;;;;;;2.50;1.65;;;;;;;10.79;70.20;99531.25;3532558;40;20099;-54
2021/05/22 01:58:00;;;;;;;7.13;2.03;;;;;;;10.82;70.42;99527.88;3532701;40;20054;-52
2021/05/22 02:00:28;;;;;;;5.25;1.50;;;;;;;10.89;70.30;99537.28;3532233;40;20423;-52
2021/05/22 02:03:03;;;;;;;4.00;1.90;;;;;;;10.82;71.46;99533.84;3532258;40;20069;-49
2021/05/22 02:05:31;;;;;;;5.97;2.15;;;;;;;10.76;71.85;99525.25;3532077;40;20055;-52
2021/05/22 02:08:00;;;;;;;5.03;1.80;;;;;;;10.77;72.15;99525.28;3532459;40;20074;-54
2021/05/22 02:10:29;;;;;;;3.55;1.77;;;;;;;10.73;72.31;99527.81;3532137;40;20062;-54
2021/05/22 02:12:59;;;;;;;3.92;2.00;;;;;;;10.67;72.98;99533.72;3532303;40;20087;-53
2021/05/22 02:15:29;;;;;;;5.65;1.83;;;;;;;10.68;73.40;99535.47;3531599;40;20197;-51
2021/05/22 02:17:56;;;;;;;3.30;1.65;;;;;;;10.78;73.04;99534.69;3532102;40;20114;-51
2021/05/22 02:20:25;;;;;;;4.78;1.88;;;;;;;10.57;74.90;99537.94;3531967;40;20078;-53
2021/05/22 02:22:55;;;;;;;4.55;1.90;;;;;;;10.71;74.07;99538.88;3532220;40;20486;-53
2021/05/22 02:25:23;;;;;;;4.55;1.88;;;;;;;10.83;74.09;99540.69;3532003;40;20096;-55
2021/05/22 02:27:51;;;;;;;4.93;1.70;;;;;;;10.80;74.36;99540.66;3532362;40;20063;-50
2021/05/22 02:30:19;;;;;;;5.63;1.30;;;;;;;10.80;74.15;99543.19;3532170;40;20094;-55
2021/05/22 02:32:49;;;;;;;3.65;1.55;;;;;;;10.86;74.16;99533.03;3532414;40;20078;-52
2021/05/22 02:35:19;;;;;;;4.10;1.65;;;;;;;10.90;74.44;99550.09;3532670;40;20074;-52
2021/05/22 02:37:52;;;;;;;2.17;1.63;;;;;;;10.96;74.72;99546.72;3532051;40;20055;-53
2021/05/22 02:40:24;;;;;;;4.78;1.88;;;;;;;10.92;75.38;99553.53;3531893;40;20055;-53
2021/05/22 02:43:01;;;;;;;3.78;1.42;;;;;;;10.97;74.87;99558.69;3532189;40;20106;-54
2021/05/22 02:45:31;;;;;;;3.05;1.65;;;;;;;10.98;75.54;99562.94;3532061;40;20067;-52
2021/05/22 02:48:01;;;;;;;3.88;1.63;;;;;;;10.82;75.46;99562.00;3531808;40;20082;-52
2021/05/22 02:50:30;;;;;;;5.00;2.05;;;;;;;10.90;75.86;99562.03;3531866;40;20082;-55
2021/05/22 02:52:59;;;;;;;3.30;1.48;;;;;;;11.02;75.89;99557.00;3532123;40;20047;-50
2021/05/22 02:55:28;;;;;;;4.13;1.80;;;;;;;10.86;77.01;99558.63;3532033;40;20055;-51
2021/05/22 02:57:56;;;;;;;3.22;1.70;;;;;;;10.85;77.24;99559.44;3531706;40;20073;-55
2021/05/22 03:00:24;;;;;;;3.58;1.42;;;;;;;11.04;76.61;99552.72;3531868;40;20457;-53
2021/05/22 03:02:52;;;;;;;4.13;1.50;;;;;;;10.97;76.38;99558.69;3531784;40;20117;-54
2021/05/22 03:05:19;;;;;;;2.53;1.55;;;;;;;11.09;75.87;99547.63;3531626;40;20070;-51
2021/05/22 03:07:46;;;;;;;2.92;1.75;;;;;;;11.06;76.58;99540.81;3531804;40;20055;-51
2021/05/22 03:10:15;;;;;;;2.92;1.27;;;;;;;11.13;76.46;99546.81;3531667;40;20066;-52
2021/05/22 03:12:42;;;;;;;2.85;1.40;;;;;;;11.13;76.50;99545.09;3527846;40;20091;-52
2021/05/22 03:15:12;;;;;;;4.63;1.70;;;;;;;11.12;76.56;99547.66;3531770;40;20062;-53
2021/05/22 03:17:39;;;;;;;3.92;1.85;;;;;;;10.98;77.20;99547.59;3531648;40;20325;-50
2021/05/22 03:20:07;;;;;;;5.43;1.52;;;;;;;11.08;77.09;99545.94;3531806;40;20090;-52
2021/05/22 03:22:34;;;;;;;4.13;1.40;;;;;;;10.95;77.08;99552.69;3531880;40;20090;-52
2021/05/22 03:25:03;;;;;;;4.60;1.60;;;;;;;10.86;77.94;99547.50;3531556;40;20344;-56
2021/05/22 03:27:32;;;;;;;2.17;1.60;;;;;;;11.02;78.61;99554.44;3530923;40;20424;-54
2021/05/22 03:29:59;;;;;;;2.67;1.50;;;;;;;10.78;79.04;99556.88;3531654;40;20098;-52
2021/05/22 03:32:26;;;;;;;3.13;1.73;;;;;;;11.14;78.09;99561.34;3531614;40;20094;-52
2021/05/22 03:34:54;;;;;;;2.38;1.60;;;;;;;11.07;78.34;99554.47;3531610;40;20054;-51
2021/05/22 03:37:21;;;;;;;3.97;1.88;;;;;;;11.13;78.19;99565.59;3522504;40;20070;-56
2021/05/22 03:39:48;;;;;;;2.13;1.52;;;;;;;11.26;77.57;99563.94;3531744;40;20129;-57
2021/05/22 03:42:15;;;;;;;3.72;1.75;;;;;;;11.31;77.59;99562.25;3531514;40;20059;-53
2021/05/22 03:44:42;;;;;;;2.60;1.70;;;;;;;11.33;77.07;99560.59;3531262;40;20054;-52
2021/05/22 03:47:10;;;;;;;5.57;2.00;;;;;;;11.32;77.40;99561.41;3531909;40;20085;-51
2021/05/22 03:49:38;;;;;;;5.82;1.55;;;;;;;11.45;77.27;99558.03;3532062;40;20091;-52
2021/05/22 03:52:05;;;;;;;2.42;1.77;;;;;;;11.40;77.77;99572.56;3531451;40;20095;-51
2021/05/22 03:54:32;;;;;;;2.47;1.60;;;;;;;11.50;77.28;99563.19;3531363;40;20144;-51
2021/05/22 03:56:59;;;;;;;2.85;1.60;;;;;;;11.51;77.37;99570.06;3531315;40;20107;-51
2021/05/22 03:59:26;;;;;;;3.13;1.80;;;;;;;11.59;77.20;99572.63;3531524;40;20078;-51
2021/05/22 04:01:53;;;;;;;6.78;1.67;;;;;;;11.57;77.19;99574.34;3531664;40;20409;-52
2021/05/22 04:04:20;;;;;;;3.03;1.85;;;;;;;11.67;77.11;99582.06;3522568;40;20059;-52
2021/05/22 04:06:47;;;;;;;3.03;2.38;;;;;;;11.63;77.46;99579.47;3531442;40;20095;-54
2021/05/22 04:09:14;;;;;;;1.77;1.60;;;;;;;11.75;76.95;99586.38;3531265;40;20098;-53
2021/05/22 04:11:41;;;;;;;2.08;1.33;;;;;;;11.73;77.29;99588.91;3527511;40;20132;-52
2021/05/22 04:14:08;;;;;;;2.22;1.48;;;;;;;11.65;78.10;99593.19;3531564;40;20063;-52
2021/05/22 04:16:35;;;;;;;1.77;1.25;;;;;;;11.75;77.52;99594.91;3531209;40;20102;-54
2021/05/22 04:19:03;;;;;;;3.92;1.80;;;;;;;11.75;78.17;99594.06;3531253;40;20123;-53
2021/05/22 04:21:30;;;;;;;2.78;1.50;;;;;;;11.79;78.41;99593.22;3531126;40;20061;-54
2021/05/22 04:23:57;;;;;;;2.47;1.77;;;;;;;11.96;77.43;99596.72;3531427;40;20050;-51
2021/05/22 04:26:24;;;;;;;3.50;2.10;;;;;;;12.13;76.70;99592.47;3530870;40;20054;-54
2021/05/22 04:28:52;;;;;;;1.98;1.25;;;;;;;12.10;77.01;99586.47;3531283;40;20069;-50
2021/05/22 04:31:19;;;;;;;1.40;1.30;;;;;;;12.12;76.60;99583.06;3531514;40;20055;-51
2021/05/22 04:33:46;;;;;;;2.67;1.60;;;;;;;12.11;76.75;99580.47;3531289;40;20399;-52
2021/05/22 04:36:13;;;;;;;2.42;1.30;;;;;;;12.14;76.78;99585.63;3531193;40;20119;-50
2021/05/22 04:38:40;;;;;;;3.20;1.77;;;;;;;12.22;76.41;99582.22;3527427;40;20417;-50
2021/05/22 04:41:07;;;;;;;1.50;1.30;;;;;;;12.18;76.71;99575.38;3533151;40;20059;-52
2021/05/22 04:43:34;;;;;;;1.73;1.30;;;;;;;12.37;76.05;99585.66;3532616;40;20090;-52
2021/05/22 04:46:01;;;;;;;3.42;1.33;;;;;;;12.58;75.19;99582.25;3532581;40;20091;-53
2021/05/22 04:48:28;;;;;;;2.25;1.77;;;;;;;12.71;74.68;99576.22;3532527;40;20071;-52
2021/05/22 04:50:55;;;;;;;2.80;1.30;;;;;;;12.58;74.41;99572.81;3532518;40;20047;-54
2021/05/22 04:53:23;;;;;;;2.35;1.50;;;;;;;12.77;74.70;99565.94;3532255;40;20361;-52
2021/05/22 04:55:50;;;;;;;3.17;1.20;;;;;;;12.98;73.02;99565.91;3532560;40;20471;-53
2021/05/22 04:58:17;;;;;;;1.85;1.10;;;;;;;13.09;73.17;99562.47;3532463;40;20436;-53
2021/05/22 05:00:44;;;;;;;1.70;1.40;;;;;;;13.09;72.76;99565.88;3532493;40;20077;-51
2021/05/22 05:03:11;;;;;;;2.40;1.60;;;;;;;12.99;72.85;99561.63;3532754;40;20322;-53
2021/05/22 05:05:38;;;;;;;1.92;1.20;;;;;;;13.17;72.74;99569.31;3532857;40;20346;-49
2021/05/22 05:08:06;;;;;;;2.72;1.20;;;;;;;13.14;72.24;99571.88;3532693;40;20050;-50
2021/05/22 05:10:33;;;;;;;1.50;1.00;;;;;;;13.17;72.42;99577.00;3532422;40;20062;-51
2021/05/22 05:13:00;;;;;;;2.88;1.20;;;;;;;13.30;72.81;99579.56;3532599;40;20138;-53
2021/05/22 05:15:27;;;;;;;1.83;1.17;;;;;;;13.39;71.64;99584.66;3532552;40;20066;-57
2021/05/22 05:17:54;;;;;;;2.15;1.20;;;;;;;13.28;71.50;99581.28;3532726;40;20058;-50
2021/05/22 05:20:21;;;;;;;1.60;1.15;;;;;;;13.57;71.67;99582.03;3532580;40;20472;-52
2021/05/22 05:22:50;;;;;;;2.83;1.00;;;;;;;14.01;69.77;99589.53;3532680;40;20058;-50
2021/05/22 05:25:18;;;;;;;2.22;1.17;;;;;;;13.90;68.43;99591.28;3532511;40;20088;-52
2021/05/22 05:27:45;;;;;;;3.88;1.15;;;;;;;14.06;68.53;99586.06;3532502;40;20062;-50
2021/05/22 05:30:12;;;;;;;5.47;1.25;;;;;;;14.09;68.86;99586.88;3532565;40;20337;-50
2021/05/22 05:32:39;;;;;;;2.38;1.17;;;;;;;14.08;68.48;99586.91;3532139;40;20094;-53
2021/05/22 05:35:09;;;;;;;2.70;1.23;;;;;;;14.01;68.65;99589.53;3532610;40;20083;-58
2021/05/22 05:37:40;;;;;;;1.30;0.98;;;;;;;14.26;67.93;99592.78;3532545;40;20332;-57
2021/05/22 05:40:07;;;;;;;4.70;1.55;;;;;;;14.18;67.27;99591.13;3532649;40;20047;-53
2021/05/22 05:42:35;;;;;;;3.88;1.10;;;;;;;14.02;67.57;99596.38;3532407;40;20104;-58
2021/05/22 05:45:04;;;;;;;2.80;1.27;;;;;;;14.12;67.32;99591.16;3532451;40;20067;-58
2021/05/22 05:47:31;;;;;;;2.30;0.95;;;;;;;14.34;66.37;99592.75;3532025;40;20051;-59
2021/05/22 05:49:59;;;;;;;2.47;1.10;;;;;;;14.42;66.17;99602.97;3531921;40;20057;-58
2021/05/22 05:52:26;;;;;;;3.50;1.33;;;;;;;14.44;66.03;99606.41;3532164;40;20051;-59
2021/05/22 05:54:53;;;;;;;1.33;1.23;;;;;;;14.43;66.01;99600.41;3532399;40;20058;-57
2021/05/22 05:57:20;;;;;;;3.53;1.10;;;;;;;14.25;66.54;99597.94;3532146;40;20067;-57
2021/05/22 05:59:47;;;;;;;2.67;1.00;;;;;;;14.11;66.24;99587.75;3532428;40;20062;-57
2021/05/22 06:02:14;;;;;;;5.97;1.35;;;;;;;13.83;67.26;99599.06;3532051;40;20043;-55
2021/05/22 06:04:41;;;;;;;3.22;1.15;;;;;;;13.96;66.79;99586.13;3528428;40;20062;-57
2021/05/22 06:07:08;;;;;;;1.67;0.95;;;;;;;13.87;69.25;99601.63;3532102;40;20346;-57
2021/05/22 06:09:35;;;;;;;2.92;1.35;;;;;;;13.49;75.57;99597.47;3532559;40;20404;-59
2021/05/22 06:12:04;;;;;;;3.70;1.33;;;;;;;13.39;75.34;99595.81;3532062;40;20058;-56
2021/05/22 06:14:36;;;;;;;3.25;1.63;;;;;;;13.56;77.10;99587.19;3532101;40;20051;-57
2021/05/22 06:17:04;;;;;;;3.35;1.25;;;;;;;13.77;74.04;99589.63;3532150;40;20144;-54
2021/05/22 06:19:31;;;;;;;3.75;1.15;;;;;;;13.84;73.17;99604.19;3532105;40;20063;-58
2021/05/22 06:21:59;;;;;;;2.08;1.30;;;;;;;13.92;73.13;99612.75;3532121;40;20328;-57
2021/05/22 06:24:26;;;;;;;2.88;1.17;;;;;;;13.77;71.32;99617.94;3532125;40;20438;-59
2021/05/22 06:26:54;;;;;;;2.05;0.88;;;;;;;13.99;72.99;99622.13;3532118;40;20087;-59
2021/05/22 06:29:21;;;;;;;1.98;1.27;;;;;;;14.06;70.65;99629.84;3531765;40;20081;-59
2021/05/22 06:31:49;;;;;;;1.95;1.35;;;;;;;14.08;71.19;99630.66;3532157;40;20140;-58
2021/05/22 06:34:17;;;;;;;4.25;1.30;;;;;;;14.11;70.94;99626.38;3531741;40;20059;-59
2021/05/22 06:36:44;;;;;;;2.25;1.15;;;;;;;14.25;71.18;99626.28;3531842;40;20427;-59
2021/05/22 06:39:11;;;;;;;2.22;1.00;;;;;;;14.40;68.76;99623.59;3529941;40;20063;-59
2021/05/22 06:41:38;;;;;;;2.38;1.20;;;;;;;14.64;71.34;99622.56;3532117;40;20099;-58
2021/05/22 06:44:06;;;;;;;1.80;1.23;;;;;;;14.80;66.87;99617.31;3532130;40;20039;-55
2021/05/22 06:49:00;;;;;;;2.33;1.13;;;;;;;14.81;64.64;99621.59;3528128;40;20879;-59
2021/05/22 06:51:27;;;;;;;1.65;1.05;;;;;;;14.88;65.29;99636.13;3528235;40;20796;-56
2021/05/22 06:53:55;;;;;;;1.80;1.15;;;;;;;14.95;64.23;99622.31;3528283;40;20062;-58
2021/05/22 06:56:22;;;;;;;2.15;1.20;;;;;;;15.04;63.76;99624.81;3531452;40;20091;-57
2021/05/22 06:58:49;;;;;;;2.42;0.90;;;;;;;14.91;63.67;99618.91;3532242;40;20364;-56
2021/05/22 07:01:16;;;;;;;1.48;0.90;;;;;;;14.86;63.39;99625.84;3532143;40;20428;-59
2021/05/22 07:03:43;;;;;;;1.48;0.85;;;;;;;15.17;62.68;99633.28;3530503;40;20062;-60
2021/05/22 07:06:12;;;;;;;1.33;0.80;;;;;;;14.99;62.40;99627.44;3531997;40;20062;-56
2021/05/22 07:08:39;;;;;;;2.70;1.27;;;;;;;15.30;61.49;99632.28;3532017;40;20047;-59
2021/05/22 07:11:07;;;;;;;1.38;0.82;;;;;;;15.04;61.49;99629.97;3532057;40;20054;-58
2021/05/22 07:13:34;;;;;;;1.50;0.68;;;;;;;15.02;60.42;99635.16;3531981;40;20054;-55
2021/05/22 07:16:04;;;;;;;1.98;0.70;;;;;;;14.87;59.64;99635.25;3532033;40;20055;-55
2021/05/22 07:18:31;;;;;;;0.80;0.60;;;;;;;14.76;59.95;99626.78;3532088;40;20320;-60
2021/05/22 07:20:58;;;;;;;1.48;0.80;;;;;;;14.86;59.86;99632.72;3532097;40;20057;-56
2021/05/22 07:23:26;;;;;;;2.55;0.75;;;;;;;14.91;59.39;99644.69;3532221;40;20129;-55
2021/05/22 07:25:53;;;;;;;2.65;0.80;;;;;;;14.70;58.31;99634.56;3522209;40;20877;-59
2021/05/22 07:28:20;;;;;;;2.63;0.70;;;;;;;14.85;58.02;99637.00;3530657;40;20118;-57
2021/05/22 07:30:47;;;;;;;1.73;0.60;;;;;;;15.01;57.31;99645.44;3531829;40;20059;-59
2021/05/22 07:33:15;;;;;;;3.10;1.05;;;;;;;14.82;56.51;99642.19;3531712;40;20717;-58
2021/05/22 07:35:42;;;;;;;3.88;0.93;;;;;;;14.71;56.70;99638.84;3527764;40;20082;-56
2021/05/22 07:38:09;;;;;;;3.60;0.70;;;;;;;15.09;57.33;99643.66;3532101;40;20067;-56
2021/05/22 07:40:36;;;;;;;5.25;1.00;;;;;;;15.29;56.73;99649.47;3531772;40;20111;-59
2021/05/22 07:43:03;;;;;;;1.92;0.82;;;;;;;15.67;56.34;99650.81;3531271;40;20378;-59
2021/05/22 07:45:30;;;;;;;3.22;0.70;;;;;;;15.57;56.07;99645.75;3537295;40;20088;-58
2021/05/22 07:47:58;;;;;;;1.58;0.40;;;;;;;15.85;53.34;99648.88;3531878;40;20346;-57
2021/05/22 07:50:26;;;;;;;3.10;0.65;;;;;;;15.73;53.24;99655.06;3529270;40;20062;-56
2021/05/22 07:52:53;;;;;;;4.00;0.85;;;;;;;15.99;52.17;99641.78;3531908;40;20110;-64
2021/05/22 07:55:20;;;;;;;4.47;0.90;;;;;;;16.32;52.78;99653.41;3530025;40;20066;-63
2021/05/22 07:57:48;;;;;;;1.98;0.80;;;;;;;15.82;53.01;99648.94;3531261;40;20063;-62
2021/05/22 08:00:16;;;;;;;2.33;0.70;;;;;;;15.85;53.28;99646.28;3531482;40;20070;-60
2021/05/22 08:02:43;;;;;;;3.70;0.60;;;;;;;15.48;55.16;99654.44;3531630;40;20090;-63
2021/05/22 08:05:13;;;;;;;1.83;0.70;;;;;;;15.77;54.48;99649.84;3531565;40;20095;-50
2021/05/22 08:07:41;;;;;;;3.03;0.68;;;;;;;16.17;55.47;99659.63;3527759;40;20102;-51
2021/05/22 08:10:09;;;;;;;2.33;0.68;;;;;;;16.20;54.46;99656.16;3531303;40;20087;-55
2021/05/22 08:12:36;;;;;;;2.75;1.00;;;;;;;16.30;54.64;99663.75;3531220;40;20051;-53
2021/05/22 08:15:04;;;;;;;2.35;1.00;;;;;;;17.04;51.67;99658.31;3532606;40;20364;-54
2021/05/22 08:17:31;;;;;;;4.85;1.55;;;;;;;17.36;51.84;99671.56;3532824;40;20794;-53
2021/05/22 08:19:58;;;;;;;5.45;1.90;;;;;;;17.01;49.73;99660.13;3533139;40;20055;-53
2021/05/22 08:22:25;;;;;;;3.85;0.75;;;;;;;16.66;49.71;99666.69;3532566;40;20078;-53
2021/05/22 08:24:53;;;;;;;2.45;0.70;;;;;;;16.65;50.22;99664.13;3532919;40;20070;-55
2021/05/22 08:27:21;;;;;;;5.93;0.73;;;;;;;16.83;51.62;99669.03;3532781;40;20086;-50
2021/05/22 08:29:55;;;;;;;3.13;0.80;;;;;;;16.01;49.58;99655.56;3531758;40;20059;-54
2021/05/22 08:32:26;;;;;;;3.17;0.93;;;;;;;16.21;51.09;99669.03;3532879;40;20348;-53
2021/05/22 08:34:54;;;;;;;1.92;0.70;;;;;;;16.27;49.98;99668.13;3532738;40;20417;-52
2021/05/22 08:37:23;;;;;;;3.83;0.85;;;;;;;16.21;50.10;99652.69;3532259;40;20835;-54
2021/05/22 08:39:52;;;;;;;7.45;1.55;;;;;;;16.24;49.05;99656.09;3523728;40;20054;-55
2021/05/22 08:42:29;;;;;;;5.85;0.70;;;;;;;16.26;48.58;99658.66;3532572;40;20062;-52
2021/05/22 08:45:15;;;;;;;4.15;1.05;;;;;;;16.61;49.02;99650.38;3532450;40;20796;-54
2021/05/22 08:47:42;;;;;;;5.00;1.00;;;;;;;17.02;48.85;99660.09;3528676;40;20090;-53
2021/05/22 08:50:12;;;;;;;6.90;1.00;;;;;;;16.60;46.97;99653.00;3533047;40;20061;-52
2021/05/22 08:52:39;;;;;;;4.95;0.95;;;;;;;16.84;47.55;99650.06;3532652;40;20050;-56
2021/05/22 08:55:07;;;;;;;4.15;0.88;;;;;;;16.87;46.75;99644.84;3532350;40;20054;-52
2021/05/22 08:57:34;;;;;;;5.93;1.13;;;;;;;17.08;46.94;99632.41;3532708;40;20103;-53
2021/05/22 09:00:03;;;;;;;4.53;0.90;;;;;;;17.37;46.49;99635.28;3532837;40;20145;-50
2021/05/22 09:02:30;;;;;;;4.53;1.17;;;;;;;17.71;48.05;99637.25;3533069;40;20094;-55
2021/05/22 09:05:10;;;;;;;3.58;1.10;;;;;;;18.04;44.91;99644.31;3532796;40;20121;-53
2021/05/22 09:07:39;;;;;;;3.50;1.20;;;;;;;17.94;44.10;99640.22;3532425;40;20063;-53
2021/05/22 09:10:17;;;;;;;3.72;0.88;;;;;;;17.37;43.95;99629.28;3532579;40;20054;-54
2021/05/22 09:12:47;;;;;;;7.82;0.88;;;;;;;17.90;44.19;99636.00;3528967;40;20828;-54
2021/05/22 09:15:17;;;;;;;10.52;1.92;;;;;;;18.09;44.07;99645.97;3532474;40;20058;-54
2021/05/22 09:17:47;;;;;;;8.05;0.90;;;;;;;18.39;42.96;99636.63;3528964;40;20081;-51
2021/05/22 09:20:23;;;;;;;3.53;0.80;;;;;;;18.43;43.80;99627.91;3532699;40;20055;-50
2021/05/22 09:23:05;;;;;;;5.40;1.20;;;;;;;18.13;43.81;99634.66;3529497;40;20080;-53
2021/05/22 09:25:38;;;;;;;3.92;0.75;;;;;;;18.02;43.74;99627.94;3532020;40;20440;-50
2021/05/22 09:28:07;;;;;;;3.35;0.80;;;;;;;17.80;43.91;99643.13;3532375;40;20101;-52
2021/05/22 09:30:36;;;;;;;6.32;0.93;;;;;;;17.49;43.10;99631.63;3532031;40;20047;-56
2021/05/22 09:33:13;;;;;;;3.67;1.10;;;;;;;17.67;43.94;99639.03;3532375;40;20147;-49
2021/05/22 09:35:48;;;;;;;3.40;0.80;;;;;;;18.10;43.24;99637.31;3528310;40;20102;-51
2021/05/22 09:38:16;;;;;;;6.60;0.80;;;;;;;18.18;43.56;99627.63;3532356;40;20425;-54
2021/05/22 09:40:44;;;;;;;4.88;1.13;;;;;;;19.02;41.67;99639.44;3532422;40;20063;-51
2021/05/22 09:43:11;;;;;;;4.20;1.15;;;;;;;18.41;41.38;99637.47;3532701;40;20063;-54
2021/05/22 09:45:39;;;;;;;6.55;1.05;;;;;;;18.24;40.68;99654.25;3532477;40;20051;-54
2021/05/22 09:48:09;;;;;;;4.63;0.90;;;;;;;18.08;41.98;99642.53;3531983;40;20087;-56
2021/05/22 09:50:52;;;;;;;5.13;0.90;;;;;;;18.11;42.78;99631.22;3532375;40;20360;-53
2021/05/22 09:53:31;;;;;;;2.50;0.70;;;;;;;18.96;41.41;99633.56;3532209;40;20062;-52
2021/05/22 09:56:13;;;;;;;3.20;1.10;;;;;;;19.64;39.53;99633.44;3532377;40;20055;-54
2021/05/22 09:58:53;;;;;;;3.83;0.80;;;;;;;20.31;37.74;99646.22;3532568;40;20058;-52
2021/05/22 10:01:30;;;;;;;4.60;1.10;;;;;;;19.54;38.71;99645.81;3532026;40;20051;-53
2021/05/22 10:04:16;;;;;;;3.83;0.93;;;;;;;19.30;40.23;99644.75;3532390;40;20078;-52
2021/05/22 10:06:43;;;;;;;5.78;1.15;;;;;;;22.45;34.62;99646.50;3528620;40;20047;-52
2021/05/22 10:09:16;;;;;;;3.50;0.82;;;;;;;23.40;30.83;99650.41;3532455;40;20062;-57
2021/05/22 10:12:05;;;;;;;2.63;0.70;;;;;;;25.00;27.12;99643.78;3528275;40;20742;-51
2021/05/22 10:14:36;;;;;;;4.95;0.80;;;;;;;25.30;26.63;99637.00;3532157;40;20079;-54
2021/05/22 10:17:05;;;;;;;3.28;0.80;;;;;;;25.79;26.50;99639.72;3532271;40;20055;-54
2021/05/22 10:19:33;;;;;;;3.65;1.05;;;;;;;27.41;24.88;99646.19;3532419;40;20067;-52
2021/05/22 10:22:01;;;;;;;4.45;0.70;;;;;;;27.81;24.50;99648.19;3532174;40;20433;-55
2021/05/22 10:24:28;;;;;;;5.00;0.95;;;;;;;27.56;24.47;99651.47;3531910;40;20054;-53
2021/05/22 10:26:57;;;;;;;3.78;1.05;;;;;;;27.84;24.18;99648.00;3532048;40;20730;-52
2021/05/22 10:29:25;;;;;;;2.97;1.27;;;;;;;27.57;23.23;99650.50;3532079;40;20047;-51
2021/05/22 10:31:53;;;;;;;3.00;1.17;;;;;;;25.25;26.02;99646.06;3532243;40;20121;-54
2021/05/22 10:34:26;;;;;;;4.43;1.08;;;;;;;27.84;23.89;99656.72;3531874;40;20067;-53
2021/05/22 10:36:53;;;;;;;1.73;0.75;;;;;;;28.52;21.80;99652.44;3531929;40;20066;-56
2021/05/22 10:39:44;;;;;;;2.35;0.80;;;;;;;29.91;20.07;99661.47;3531840;40;20062;-51
2021/05/22 10:42:23;;;;;;;3.55;0.65;;;;;;;29.19;19.92;99655.88;3532123;40;20102;-55
2021/05/22 10:44:51;;;;;;;5.20;1.25;;;;;;;25.58;24.56;99651.28;3528762;40;20053;-53
2021/05/22 10:47:20;;;;;;;5.57;0.75;;;;;;;23.37;31.22;99667.06;3531858;40;20063;-51
2021/05/22 10:49:54;;;;;;;4.20;0.82;;;;;;;21.49;33.79;99666.63;3531979;40;20074;-51
2021/05/22 10:52:29;;;;;;;4.30;1.00;;;;;;;20.36;36.51;99678.13;3531915;40;20071;-52
2021/05/22 10:54:58;;;;;;;;;;;;;;;22.64;31.34;99677.94;3532298;40;20063;-51
2021/05/22 10:57:26;;;;;;;2.92;0.93;;;;;;;24.58;27.60;99690.34;3531650;40;19989;-52
2021/05/22 11:00:16;;;;;;;1.48;0.43;;;;;;;26.38;25.24;99674.91;3531833;40;20486;-52
2021/05/22 11:02:55;;;;;;;2.72;0.80;;;;;;;27.29;24.75;99682.91;3527972;40;20051;-51
2021/05/22 11:05:26;;;;;;;2.75;0.93;;;;;;;27.80;23.64;99672.81;3531965;40;20058;-53
2021/05/22 11:08:09;;;;;;;2.95;0.60;;;;;;;28.04;23.17;99676.53;3532049;40;20338;-53
2021/05/22 11:10:59;;;;;;;2.88;0.65;;;;;;;28.86;21.67;99680.91;3531714;40;20064;-52
2021/05/22 11:13:26;;;;;;;4.60;0.82;;;;;;;27.34;23.02;99675.56;3531501;40;20071;-53
2021/05/22 11:15:55;;;;;;;2.97;0.70;;;;;;;27.36;23.33;99660.53;3531842;40;20104;-52
2021/05/22 11:18:27;;;;;;;2.80;0.60;;;;;;;29.67;21.64;99662.25;3531726;40;20055;-54
2021/05/22 11:21:17;;;;;;;2.60;0.88;;;;;;;27.89;22.75;99659.06;3531855;40;20051;-51
2021/05/22 11:23:57;;;;;;;2.92;0.82;;;;;;;24.51;26.14;99660.16;3528081;40;20061;-53
2021/05/22 11:26:45;;;;;;;8.10;1.27;;;;;;;21.84;29.77;99651.44;3531552;40;20070;-53
2021/05/22 11:29:12;;;;;;;6.75;0.75;;;;;;;20.40;32.05;99648.53;3531763;40;20069;-55
2021/05/22 11:31:39;;;;;;;4.65;0.50;;;;;;;19.13;33.14;99644.34;3531910;40;20112;-53
2021/05/22 11:34:24;;;;;;;4.32;0.70;;;;;;;19.88;32.83;99646.66;3531946;40;20098;-53
2021/05/22 11:37:09;;;;;;;2.88;0.50;;;;;;;23.05;27.68;99651.91;3528220;40;20356;-57
2021/05/22 11:39:39;;;;;;;4.13;0.70;;;;;;;26.24;24.40;99653.84;3531766;40;20472;-53
2021/05/22 11:42:32;;;;;;;1.92;0.80;;;;;;;23.69;27.12;99650.91;3532076;40;20055;-56
2021/05/22 11:45:01;;;;;;;2.83;0.60;;;;;;;25.59;26.36;99679.19;3529167;40;20089;-56
2021/05/22 11:47:35;;;;;;;4.65;0.57;;;;;;;22.47;29.15;99649.91;3531652;40;20063;-54